Time;durP1;ratioP1;P1;durP2;ratioP2;P2;SDS_P1;SDS_P2;PMS_P1;PMS_P2;Temp;Humidity;BMP_temperature;BMP_pressure;BME280_temperature;BME280_humidity;BME280_pressure;Samples;Min_cycle;Max_cycle;Signal;HPM_P1;HPM_P2
2021/03/01 00:00:35;;;;;;;22.00;12.77;;;7.70;91.10;;;;;;5034495;28;20755;-85
2021/03/01 00:03:00;;;;;;;25.85;14.40;;;7.70;91.20;;;;;;5000382;28;20039;-85
2021/03/01 00:05:26;;;;;;;26.33;15.27;;;7.60;91.20;;;;;;4999551;28;20025;-85
2021/03/01 00:07:52;;;;;;;25.55;14.90;;;7.60;91.20;;;;;;5016524;28;20060;-85
2021/03/01 00:10:18;;;;;;;26.48;15.07;;;7.60;91.20;;;;;;5015997;28;20026;-85
2021/03/01 00:12:44;;;;;;;26.45;14.10;;;7.60;91.30;;;;;;5016002;28;20061;-85
2021/03/01 00:15:13;;;;;;;24.02;14.38;;;7.60;91.40;;;;;;5015850;28;20061;-85
2021/03/01 00:17:39;;;;;;;24.38;13.88;;;7.60;91.40;;;;;;5016023;28;20128;-84
2021/03/01 00:20:08;;;;;;;27.25;14.90;;;7.60;91.50;;;;;;5033931;28;20109;-86
2021/03/01 00:22:34;;;;;;;30.17;17.25;;;7.60;91.50;;;;;;5034374;28;20049;-85
2021/03/01 00:25:00;;;;;;;27.55;16.20;;;7.60;91.50;;;;;;5016806;28;20030;-85
2021/03/01 00:27:25;;;;;;;27.33;15.43;;;7.60;91.50;;;;;;5000331;28;20033;-85
2021/03/01 00:29:51;;;;;;;28.10;16.42;;;7.60;91.60;;;;;;4984036;28;20474;-85
2021/03/01 00:32:16;;;;;;;30.02;15.90;;;7.60;91.60;;;;;;5016995;28;20029;-85
2021/03/01 00:34:42;;;;;;;26.50;14.85;;;7.60;91.60;;;;;;4999916;28;20037;-85
2021/03/01 00:37:08;;;;;;;27.95;15.85;;;7.60;91.70;;;;;;5017123;28;20462;-85
2021/03/01 00:39:33;;;;;;;25.50;14.88;;;7.60;91.70;;;;;;5034459;28;20029;-84
2021/03/01 00:42:00;;;;;;;28.48;15.70;;;7.60;91.70;;;;;;4999974;28;20050;-84
2021/03/01 00:44:26;;;;;;;26.65;14.95;;;7.60;91.70;;;;;;5000157;28;20058;-84
2021/03/01 00:46:51;;;;;;;30.23;17.75;;;7.60;91.70;;;;;;5016397;28;20056;-85
2021/03/01 00:49:17;;;;;;;31.40;16.75;;;7.60;91.70;;;;;;5033488;28;20025;-84
2021/03/01 00:51:43;;;;;;;34.10;19.35;;;7.60;91.70;;;;;;5016137;28;20022;-85
2021/03/01 00:54:08;;;;;;;28.42;16.70;;;7.60;91.70;;;;;;4999850;28;20110;-86
2021/03/01 00:56:34;;;;;;;28.58;16.35;;;7.60;91.70;;;;;;5015522;28;20084;-85
2021/03/01 00:58:59;;;;;;;29.98;16.15;;;7.50;91.80;;;;;;4999788;28;20061;-84
2021/03/01 01:01:25;;;;;;;29.15;16.40;;;7.60;91.80;;;;;;4999071;28;20028;-85
2021/03/01 01:03:51;;;;;;;31.25;17.80;;;7.50;91.80;;;;;;5015924;28;20470;-85
2021/03/01 01:06:16;;;;;;;29.48;17.17;;;7.50;91.80;;;;;;5016015;28;20030;-84
2021/03/01 01:08:42;;;;;;;31.17;17.60;;;7.50;91.80;;;;;;4999444;28;20044;-84
2021/03/01 01:11:07;;;;;;;28.50;16.80;;;7.50;91.80;;;;;;5015253;28;20092;-84
2021/03/01 01:13:33;;;;;;;29.45;16.77;;;7.50;91.80;;;;;;4998111;28;20565;-85
2021/03/01 01:15:59;;;;;;;33.53;16.98;;;7.50;91.90;;;;;;5015123;28;20489;-84
2021/03/01 01:18:26;;;;;;;28.15;16.13;;;7.50;91.90;;;;;;5031986;28;20029;-84
2021/03/01 01:20:52;;;;;;;30.10;16.73;;;7.40;91.90;;;;;;5033079;28;20460;-84
2021/03/01 01:23:17;;;;;;;32.67;17.25;;;7.40;91.90;;;;;;5014950;28;20120;-84
2021/03/01 01:25:43;;;;;;;32.38;18.35;;;7.40;91.90;;;;;;5013584;28;20087;-84
2021/03/01 01:28:09;;;;;;;29.58;17.15;;;7.40;92.00;;;;;;4999647;28;20037;-85
2021/03/01 01:30:35;;;;;;;30.70;17.27;;;7.40;92.00;;;;;;5015713;28;20737;-84
2021/03/01 01:33:01;;;;;;;28.83;16.67;;;7.40;92.00;;;;;;5015265;28;20021;-84
2021/03/01 01:35:27;;;;;;;30.00;18.05;;;7.40;92.00;;;;;;4999393;28;20413;-85
2021/03/01 01:37:53;;;;;;;29.13;16.48;;;7.40;92.00;;;;;;4999707;28;20030;-84
2021/03/01 01:40:20;;;;;;;28.15;17.10;;;7.40;92.10;;;;;;5015173;28;20018;-85
2021/03/01 01:42:46;;;;;;;29.98;17.27;;;7.40;92.10;;;;;;4998522;28;20034;-84
2021/03/01 01:45:15;;;;;;;29.92;16.33;;;7.40;92.10;;;;;;4998644;28;20029;-84
2021/03/01 01:47:42;;;;;;;29.08;18.15;;;7.40;92.20;;;;;;5014230;28;20021;-84
2021/03/01 01:50:09;;;;;;;32.15;18.48;;;7.40;92.10;;;;;;4983125;28;20037;-84
2021/03/01 01:52:35;;;;;;;29.63;18.00;;;7.40;92.10;;;;;;5014936;28;20477;-84
2021/03/01 01:55:03;;;;;;;31.00;17.33;;;7.40;92.10;;;;;;5032395;28;20041;-84
2021/03/01 01:57:29;;;;;;;30.80;17.17;;;7.40;92.10;;;;;;5032417;28;20064;-85
2021/03/01 01:59:55;;;;;;;30.55;18.05;;;7.40;92.10;;;;;;4998591;28;20021;-84
2021/03/01 02:02:20;;;;;;;30.23;17.20;;;7.40;92.10;;;;;;5014963;28;20021;-84
2021/03/01 02:04:51;;;;;;;33.15;18.85;;;7.40;92.10;;;;;;5032260;28;20021;-84
2021/03/01 02:07:30;;;;;;;34.45;19.00;;;7.30;92.10;;;;;;5014988;28;20029;-84
2021/03/01 02:10:48;;;;;;;31.13;18.00;;;7.30;92.30;;;;;;5032560;28;20013;-85
2021/03/01 02:14:10;;;;;;;33.38;18.98;;;7.30;92.10;;;;;;4954634;28;20062;-85
2021/03/01 02:16:36;;;;;;;31.85;17.85;;;7.30;92.10;;;;;;4931715;29;20055;-85
2021/03/01 02:19:03;;;;;;;30.92;18.10;;;7.30;92.10;;;;;;5025904;28;20121;-85
2021/03/01 02:21:30;;;;;;;31.45;17.55;;;7.20;92.10;;;;;;5014153;28;20025;-85
2021/03/01 02:23:56;;;;;;;29.38;17.52;;;7.20;92.20;;;;;;4998179;28;20033;-84
2021/03/01 02:26:26;;;;;;;35.47;21.10;;;7.20;92.20;;;;;;5014013;28;20371;-85
2021/03/01 02:28:58;;;;;;;31.33;18.27;;;7.20;92.20;;;;;;5031876;28;20021;-84
2021/03/01 02:31:26;;;;;;;35.15;20.50;;;7.20;92.20;;;;;;5013841;28;20022;-84
2021/03/01 02:33:58;;;;;;;28.83;16.75;;;7.20;92.20;;;;;;5030954;28;20021;-86
2021/03/01 02:36:32;;;;;;;32.25;18.52;;;7.20;92.30;;;;;;5031904;28;20036;-85
2021/03/01 02:39:01;;;;;;;30.80;17.25;;;7.10;92.50;;;;;;5013980;28;20025;-85
2021/03/01 02:41:28;;;;;;;31.73;17.70;;;7.10;92.30;;;;;;5014281;28;20074;-84
2021/03/01 02:43:54;;;;;;;30.67;16.88;;;7.10;92.30;;;;;;5032303;28;20489;-84
2021/03/01 02:46:20;;;;;;;27.38;15.07;;;7.10;92.30;;;;;;5033008;28;20022;-84
2021/03/01 02:48:48;;;;;;;25.98;15.45;;;7.10;92.40;;;;;;5014302;28;20025;-84
2021/03/01 02:51:15;;;;;;;30.13;17.98;;;7.10;92.40;;;;;;5033146;28;20056;-84
2021/03/01 02:53:42;;;;;;;31.20;17.20;;;7.20;92.50;;;;;;5032222;28;20026;-84
2021/03/01 02:56:08;;;;;;;27.75;15.88;;;7.20;92.40;;;;;;4998377;28;20049;-85
2021/03/01 02:58:37;;;;;;;31.98;17.73;;;7.20;92.40;;;;;;5014835;28;20429;-85
2021/03/01 03:01:03;;;;;;;29.52;16.73;;;7.20;92.40;;;;;;5014989;28;20121;-85
2021/03/01 03:03:30;;;;;;;30.80;17.52;;;7.20;92.40;;;;;;5014885;28;20026;-85
2021/03/01 03:05:57;;;;;;;30.90;18.35;;;7.20;92.40;;;;;;4997961;28;20028;-85
2021/03/01 03:08:24;;;;;;;30.10;17.65;;;7.20;92.40;;;;;;4998323;28;20060;-85
2021/03/01 03:10:51;;;;;;;31.90;18.85;;;7.20;92.40;;;;;;4997099;28;20026;-84
2021/03/01 03:13:19;;;;;;;29.45;16.85;;;7.20;92.30;;;;;;5031449;28;20021;-84
2021/03/01 03:15:45;;;;;;;31.45;17.33;;;7.20;92.30;;;;;;5013737;28;20029;-85
2021/03/01 03:18:14;;;;;;;29.15;18.15;;;7.20;92.30;;;;;;5031535;28;20017;-85
2021/03/01 03:20:40;;;;;;;30.23;17.02;;;7.20;92.30;;;;;;5031464;28;20466;-85
2021/03/01 03:23:07;;;;;;;28.48;17.50;;;7.20;92.20;;;;;;5014459;28;20021;-85
2021/03/01 03:25:33;;;;;;;29.77;18.30;;;7.20;92.20;;;;;;5013422;28;20083;-84
2021/03/01 03:27:59;;;;;;;30.38;16.27;;;7.10;92.20;;;;;;5031298;28;20026;-85
2021/03/01 03:30:25;;;;;;;24.58;15.77;;;7.10;92.20;;;;;;5034348;28;20041;-85
2021/03/01 03:32:52;;;;;;;29.30;16.65;;;7.00;92.20;;;;;;5000092;28;20390;-85
2021/03/01 03:35:18;;;;;;;25.20;15.88;;;7.10;92.30;;;;;;5034309;28;20037;-85
2021/03/01 03:37:50;;;;;;;30.38;16.40;;;7.10;92.40;;;;;;5016113;28;20040;-85
2021/03/01 03:40:18;;;;;;;26.52;15.45;;;7.00;92.40;;;;;;5016755;28;20457;-85
2021/03/01 03:42:44;;;;;;;24.08;14.93;;;7.00;92.40;;;;;;5034285;28;20029;-85
2021/03/01 03:45:14;;;;;;;25.83;15.00;;;7.00;92.40;;;;;;5017437;28;20126;-84
2021/03/01 03:47:43;;;;;;;24.75;14.18;;;7.00;92.40;;;;;;5035583;28;20569;-85
2021/03/01 03:50:11;;;;;;;26.98;16.58;;;7.00;92.40;;;;;;5034342;28;20078;-85
2021/03/01 03:52:39;;;;;;;26.48;16.42;;;7.00;92.40;;;;;;5000896;28;20030;-85
2021/03/01 03:55:25;;;;;;;27.10;15.68;;;7.00;92.40;;;;;;5017475;28;20038;-85
2021/03/01 03:57:58;;;;;;;25.67;15.40;;;7.00;92.40;;;;;;5033640;28;20379;-85
2021/03/01 04:00:29;;;;;;;30.23;16.75;;;7.00;92.50;;;;;;5017619;28;20029;-86
2021/03/01 04:03:00;;;;;;;24.92;15.82;;;7.00;92.40;;;;;;5035459;28;20482;-85
2021/03/01 04:05:28;;;;;;;25.65;16.08;;;7.00;92.40;;;;;;5035055;28;20031;-85
2021/03/01 04:07:55;;;;;;;23.95;14.45;;;6.90;92.40;;;;;;5017740;28;20059;-85
2021/03/01 04:10:22;;;;;;;23.98;14.32;;;6.90;92.40;;;;;;4999619;28;20057;-85
2021/03/01 04:12:53;;;;;;;23.92;14.38;;;6.90;92.50;;;;;;5017423;28;20030;-85
2021/03/01 04:15:19;;;;;;;22.90;14.45;;;6.90;92.50;;;;;;5017279;28;20025;-85
2021/03/01 04:17:48;;;;;;;23.60;14.15;;;6.90;92.50;;;;;;5033825;28;20389;-84
2021/03/01 04:20:18;;;;;;;22.05;13.77;;;6.90;92.50;;;;;;5018335;28;20036;-84
2021/03/01 04:22:44;;;;;;;24.67;15.32;;;6.90;92.50;;;;;;5034341;28;20653;-85
2021/03/01 04:25:10;;;;;;;25.83;15.82;;;6.90;92.50;;;;;;4999058;28;20025;-85
2021/03/01 04:27:38;;;;;;;25.65;15.48;;;6.90;92.60;;;;;;5033729;28;20030;-85
2021/03/01 04:30:09;;;;;;;22.40;15.07;;;6.90;92.40;;;;;;5016949;28;20085;-85
2021/03/01 04:32:43;;;;;;;24.95;15.30;;;6.80;92.30;;;;;;5017046;28;20033;-85
2021/03/01 04:35:12;;;;;;;27.83;15.68;;;6.80;92.30;;;;;;5034757;28;20091;-85
2021/03/01 04:37:38;;;;;;;26.25;14.80;;;6.80;92.40;;;;;;5016346;28;20065;-85
2021/03/01 04:40:04;;;;;;;24.45;15.52;;;6.70;92.40;;;;;;5032051;28;20037;-85
2021/03/01 04:42:33;;;;;;;26.95;15.45;;;6.70;92.50;;;;;;5032515;28;20033;-85
2021/03/01 04:45:00;;;;;;;28.73;15.52;;;6.70;92.60;;;;;;5034032;28;20382;-85
2021/03/01 04:47:27;;;;;;;27.65;15.82;;;6.70;92.60;;;;;;5016582;28;20034;-85
2021/03/01 04:49:54;;;;;;;26.83;15.35;;;6.70;92.70;;;;;;5016826;28;20485;-85
2021/03/01 04:52:21;;;;;;;25.60;15.65;;;6.70;92.70;;;;;;5034186;28;20022;-85
2021/03/01 04:54:48;;;;;;;27.10;15.82;;;6.70;92.80;;;;;;5032373;28;20033;-85
2021/03/01 04:57:16;;;;;;;27.73;15.75;;;6.70;92.70;;;;;;5032357;28;20510;-85
2021/03/01 04:59:42;;;;;;;27.05;14.85;;;6.70;92.70;;;;;;5015743;28;20377;-86
2021/03/01 05:02:09;;;;;;;24.38;14.95;;;6.60;92.60;;;;;;5032576;28;20045;-85
2021/03/01 05:04:36;;;;;;;23.95;14.18;;;6.60;92.60;;;;;;5034047;28;20082;-85
2021/03/01 05:07:06;;;;;;;21.48;13.27;;;6.60;92.70;;;;;;5015806;28;20037;-85
2021/03/01 05:09:35;;;;;;;23.20;14.80;;;6.60;92.70;;;;;;5033302;28;20033;-85
2021/03/01 05:12:00;;;;;;;23.80;15.20;;;6.60;92.70;;;;;;5015236;28;20466;-85
2021/03/01 05:14:26;;;;;;;24.20;14.50;;;6.60;92.70;;;;;;5033377;28;20026;-85
2021/03/01 05:16:52;;;;;;;22.70;12.88;;;6.60;92.80;;;;;;5015216;28;20034;-85
2021/03/01 05:19:17;;;;;;;24.83;14.77;;;6.60;92.80;;;;;;5015851;28;20080;-85
2021/03/01 05:21:43;;;;;;;25.00;14.02;;;6.60;92.80;;;;;;4999267;28;20033;-85
2021/03/01 05:24:09;;;;;;;27.00;14.80;;;6.60;92.80;;;;;;4999426;28;20038;-85
2021/03/01 05:26:34;;;;;;;26.27;15.07;;;6.60;92.80;;;;;;5014508;28;22872;-85
2021/03/01 05:29:03;;;;;;;24.48;14.43;;;6.60;92.80;;;;;;4998967;28;20021;-85
2021/03/01 05:31:28;;;;;;;27.08;15.80;;;6.60;92.80;;;;;;5015572;28;20080;-85
2021/03/01 05:33:54;;;;;;;24.08;14.40;;;6.60;92.80;;;;;;4982795;28;20481;-85
2021/03/01 05:36:19;;;;;;;24.63;15.35;;;6.60;92.80;;;;;;5015467;28;20064;-85
2021/03/01 05:38:45;;;;;;;24.30;14.60;;;6.60;92.80;;;;;;4998501;28;20030;-85
2021/03/01 05:41:12;;;;;;;26.60;15.73;;;6.60;92.80;;;;;;5015216;28;20080;-85
2021/03/01 05:43:38;;;;;;;21.20;13.77;;;6.60;92.80;;;;;;5014791;28;20030;-85
2021/03/01 05:46:04;;;;;;;25.20;15.77;;;6.60;92.80;;;;;;4999495;28;20030;-86
2021/03/01 05:48:29;;;;;;;30.23;15.70;;;6.60;92.80;;;;;;5032799;28;20037;-85
2021/03/01 05:50:58;;;;;;;25.95;16.10;;;6.60;92.80;;;;;;5033146;28;20393;-85
2021/03/01 05:53:38;;;;;;;28.38;17.15;;;6.60;92.70;;;;;;5015924;28;20481;-85
2021/03/01 05:56:04;;;;;;;28.35;16.85;;;6.60;92.70;;;;;;5015948;28;20098;-84
2021/03/01 05:58:30;;;;;;;35.22;18.38;;;6.60;92.70;;;;;;5015924;28;20484;-85
2021/03/01 06:01:01;;;;;;;30.33;17.73;;;6.60;92.60;;;;;;5015958;28;20029;-85
2021/03/01 06:03:34;;;;;;;26.43;16.30;;;6.60;92.60;;;;;;5000014;28;20061;-85
2021/03/01 06:06:00;;;;;;;27.33;17.45;;;6.60;92.60;;;;;;5033335;28;20099;-85
2021/03/01 06:08:26;;;;;;;25.42;15.57;;;6.60;92.60;;;;;;5031793;28;20056;-85
2021/03/01 06:11:03;;;;;;;27.35;16.45;;;6.50;92.50;;;;;;5015738;28;20045;-85
2021/03/01 06:13:29;;;;;;;27.02;16.05;;;6.50;92.60;;;;;;5032931;28;20025;-85
2021/03/01 06:15:59;;;;;;;28.90;16.55;;;6.40;92.50;;;;;;5035741;28;20609;-85
2021/03/01 06:18:25;;;;;;;31.92;17.55;;;6.40;92.50;;;;;;5031887;28;20215;-85
2021/03/01 06:20:52;;;;;;;30.73;17.05;;;6.40;92.40;;;;;;5016143;28;20497;-85
2021/03/01 06:23:39;;;;;;;26.88;15.70;;;6.40;92.30;;;;;;5016163;28;20108;-86
2021/03/01 06:26:24;;;;;;;31.95;17.65;;;6.30;92.40;;;;;;5014869;28;20021;-85
2021/03/01 06:28:52;;;;;;;28.20;15.95;;;6.30;92.40;;;;;;5031585;28;20021;-85
2021/03/01 06:31:31;;;;;;;27.73;15.43;;;6.20;92.50;;;;;;5014929;28;20028;-85
2021/03/01 06:34:19;;;;;;;28.67;16.48;;;6.20;92.50;;;;;;5015213;28;20067;-85
2021/03/01 06:37:16;;;;;;;27.80;15.35;;;6.20;92.50;;;;;;5031928;28;20022;-85
2021/03/01 06:39:45;;;;;;;26.33;16.30;;;6.20;92.60;;;;;;5014820;28;20112;-85
2021/03/01 06:42:19;;;;;;;24.33;14.02;;;6.10;92.50;;;;;;5032919;28;20021;-84
2021/03/01 06:45:03;;;;;;;26.70;16.10;;;6.10;92.50;;;;;;5032718;28;20071;-85
2021/03/01 06:47:48;;;;;;;27.67;16.08;;;6.10;92.60;;;;;;5032775;28;20022;-85
2021/03/01 06:50:33;;;;;;;28.15;16.23;;;6.00;92.60;;;;;;5041568;28;20023;-86
2021/03/01 06:53:03;;;;;;;32.45;16.38;;;6.00;92.50;;;;;;5027601;28;20022;-86
2021/03/01 06:55:30;;;;;;;30.27;15.93;;;6.00;92.60;;;;;;5027469;28;20741;-86
2021/03/01 06:57:57;;;;;;;30.33;16.75;;;5.90;92.60;;;;;;5045224;28;20040;-85
2021/03/01 07:00:27;;;;;;;26.60;15.07;;;5.90;92.60;;;;;;5039469;28;20022;-85
2021/03/01 07:02:54;;;;;;;29.50;15.75;;;5.90;92.60;;;;;;5025967;28;20013;-85
2021/03/01 07:05:21;;;;;;;29.13;15.57;;;5.90;92.70;;;;;;5046002;28;20025;-85
2021/03/01 07:07:47;;;;;;;28.10;16.20;;;5.80;92.70;;;;;;5028391;28;20032;-85
2021/03/01 07:10:13;;;;;;;24.65;14.73;;;5.80;92.70;;;;;;5013766;28;20424;-85
2021/03/01 07:12:40;;;;;;;30.65;15.93;;;5.70;92.70;;;;;;5044247;28;20059;-85
2021/03/01 07:15:09;;;;;;;30.13;16.00;;;5.80;92.80;;;;;;5026313;28;20017;-85
2021/03/01 07:17:40;;;;;;;29.15;17.05;;;5.80;92.90;;;;;;5048967;28;20021;-84
2021/03/01 07:20:08;;;;;;;28.10;16.30;;;5.80;93.00;;;;;;5032510;28;20100;-85
2021/03/01 07:22:38;;;;;;;30.67;17.65;;;5.80;92.90;;;;;;5013703;28;20116;-85
2021/03/01 07:25:05;;;;;;;28.02;15.20;;;5.80;93.00;;;;;;5008672;28;20029;-84
2021/03/01 07:27:36;;;;;;;30.92;16.83;;;5.80;92.90;;;;;;5004612;28;20128;-85
2021/03/01 07:30:02;;;;;;;32.40;17.25;;;5.80;92.90;;;;;;5027515;28;20028;-85
2021/03/01 07:32:30;;;;;;;34.50;18.35;;;5.80;92.90;;;;;;5046391;28;20036;-85
2021/03/01 07:34:56;;;;;;;31.63;17.02;;;5.80;93.00;;;;;;5048947;28;20064;-84
2021/03/01 07:37:22;;;;;;;28.35;15.45;;;5.80;93.00;;;;;;5047904;28;20056;-84
2021/03/01 07:39:48;;;;;;;29.27;15.85;;;5.80;93.00;;;;;;5027680;28;20373;-85
2021/03/01 07:42:16;;;;;;;31.20;16.33;;;5.80;93.00;;;;;;5024547;28;20029;-84
2021/03/01 07:44:45;;;;;;;29.65;15.88;;;5.80;93.00;;;;;;5000319;28;20448;-85
2021/03/01 07:47:11;;;;;;;29.08;15.57;;;5.80;93.00;;;;;;5048693;28;20033;-85
2021/03/01 07:49:45;;;;;;;27.30;15.60;;;5.70;93.00;;;;;;5028037;28;20389;-84
2021/03/01 07:52:20;;;;;;;26.88;15.65;;;5.80;93.00;;;;;;5029101;28;20033;-84
2021/03/01 07:54:56;;;;;;;30.80;14.80;;;5.70;93.10;;;;;;5013546;28;20034;-85
2021/03/01 07:57:26;;;;;;;34.60;18.33;;;5.70;93.10;;;;;;5030951;28;20050;-82
2021/03/01 07:59:52;;;;;;;29.77;17.02;;;5.70;93.10;;;;;;5013777;28;20095;-86
2021/03/01 08:02:30;;;;;;;28.83;15.80;;;5.70;93.30;;;;;;5013020;28;20474;-85
2021/03/01 08:04:57;;;;;;;31.52;16.58;;;5.70;93.10;;;;;;4996920;28;20030;-85
2021/03/01 08:07:37;;;;;;;33.85;17.67;;;5.70;93.10;;;;;;4996797;28;20151;-84
2021/03/01 08:10:04;;;;;;;29.67;15.93;;;5.70;93.20;;;;;;5011649;28;20385;-84
2021/03/01 08:12:32;;;;;;;30.08;17.33;;;5.70;93.30;;;;;;4996161;28;20021;-86
2021/03/01 08:14:58;;;;;;;31.75;17.15;;;5.70;93.20;;;;;;5014730;28;20502;-84
2021/03/01 08:17:30;;;;;;;31.73;16.50;;;5.80;93.30;;;;;;5015169;28;20053;-84
2021/03/01 08:19:57;;;;;;;33.40;17.75;;;5.80;93.30;;;;;;5049678;28;20071;-84
2021/03/01 08:22:24;;;;;;;35.03;17.30;;;5.80;93.40;;;;;;5013295;28;20025;-86
2021/03/01 08:24:53;;;;;;;31.33;17.25;;;5.80;93.30;;;;;;5000332;28;20811;-85
2021/03/01 08:27:38;;;;;;;30.00;15.50;;;5.80;93.30;;;;;;5026173;28;20563;-84
2021/03/01 08:30:21;;;;;;;27.83;15.93;;;5.80;93.40;;;;;;5042553;28;20032;-84
2021/03/01 08:33:08;;;;;;;26.13;15.23;;;5.80;93.70;;;;;;5035654;28;20049;-84
2021/03/01 08:35:40;;;;;;;32.08;15.93;;;5.80;93.50;;;;;;5012942;28;20045;-84
2021/03/01 08:38:06;;;;;;;31.77;16.33;;;5.80;93.40;;;;;;5029958;28;20029;-85
2021/03/01 08:40:33;;;;;;;29.85;15.35;;;5.90;93.50;;;;;;4999068;28;20482;-85
2021/03/01 08:43:04;;;;;;;29.80;16.52;;;5.90;93.50;;;;;;5026903;28;20033;-85
2021/03/01 08:45:40;;;;;;;29.40;16.35;;;5.90;93.50;;;;;;5016600;28;20040;-88
2021/03/01 08:48:24;;;;;;;29.52;15.60;;;5.90;93.30;;;;;;5016363;28;20140;-85
2021/03/01 08:50:52;;;;;;;28.45;15.23;;;5.90;93.30;;;;;;5000831;28;20112;-85
2021/03/01 08:53:26;;;;;;;27.92;14.05;;;5.90;93.40;;;;;;5047275;28;20124;-85
2021/03/01 08:55:53;;;;;;;29.35;15.77;;;5.90;93.40;;;;;;5028774;28;20050;-85
2021/03/01 08:58:20;;;;;;;32.97;16.42;;;5.90;93.40;;;;;;5027491;28;20029;-85
2021/03/01 09:00:59;;;;;;;33.28;16.75;;;5.90;93.30;;;;;;5025911;28;20033;-84
2021/03/01 09:03:26;;;;;;;32.88;17.42;;;5.90;93.30;;;;;;4997553;28;20026;-85
2021/03/01 09:05:55;;;;;;;31.02;16.38;;;5.90;93.30;;;;;;5009804;28;20124;-84
2021/03/01 09:08:26;;;;;;;29.27;15.82;;;5.90;93.30;;;;;;5014611;28;20043;-87
2021/03/01 09:10:52;;;;;;;29.65;16.08;;;5.90;93.40;;;;;;5035805;28;20108;-84
2021/03/01 09:13:22;;;;;;;31.55;17.20;;;5.90;93.30;;;;;;5013126;28;20125;-84
2021/03/01 09:15:48;;;;;;;30.63;15.07;;;6.00;93.30;;;;;;5025203;28;20060;-85
2021/03/01 09:18:15;;;;;;;28.92;14.88;;;5.90;93.30;;;;;;5016580;28;20041;-87
2021/03/01 09:20:55;;;;;;;27.52;15.52;;;5.90;93.40;;;;;;5026609;28;20112;-88
2021/03/01 09:23:41;;;;;;;30.33;15.77;;;5.90;93.30;;;;;;5015049;28;20026;-89
2021/03/01 09:26:08;;;;;;;36.72;17.40;;;5.90;93.30;;;;;;5049703;28;20108;-88
2021/03/01 09:28:37;;;;;;;37.15;19.17;;;5.90;93.30;;;;;;5027001;28;20036;-88
2021/03/01 09:31:08;;;;;;;32.95;17.85;;;6.00;93.30;;;;;;5029402;28;20032;-88
2021/03/01 09:33:34;;;;;;;;;;;6.00;93.30;;;;;;5029212;28;20021;-87
2021/03/01 09:36:00;;;;;;;34.20;16.70;;;6.00;93.30;;;;;;5030941;28;19943;-88
2021/03/01 09:38:26;;;;;;;28.42;14.48;;;6.00;93.30;;;;;;5038002;28;20025;-89
2021/03/01 09:41:03;;;;;;;30.02;16.35;;;6.00;93.30;;;;;;5028637;28;20535;-88
2021/03/01 09:43:29;;;;;;;26.40;13.98;;;6.00;93.30;;;;;;5053853;28;20029;-88
2021/03/01 09:45:57;;;;;;;28.13;15.07;;;6.00;93.40;;;;;;5029586;28;20117;-88
2021/03/01 09:48:24;;;;;;;27.30;14.63;;;5.90;93.40;;;;;;5016394;28;20026;-88
2021/03/01 09:50:50;;;;;;;30.00;16.02;;;6.00;93.40;;;;;;5012669;28;20033;-88
2021/03/01 09:53:17;;;;;;;26.55;15.27;;;6.00;93.40;;;;;;5031389;28;20018;-89
2021/03/01 09:55:44;;;;;;;25.25;14.25;;;6.00;93.40;;;;;;5013602;28;20099;-88
2021/03/01 09:58:30;;;;;;;25.80;13.60;;;6.00;93.70;;;;;;5012323;28;20470;-88
2021/03/01 10:01:13;;;;;;;22.55;13.00;;;6.00;93.40;;;;;;5051553;28;20021;-88
2021/03/01 10:03:43;;;;;;;24.42;13.98;;;6.00;93.30;;;;;;5028045;28;20053;-88
2021/03/01 10:06:10;;;;;;;25.02;14.40;;;6.00;93.40;;;;;;5014923;28;20489;-89
2021/03/01 10:08:37;;;;;;;27.88;15.05;;;6.00;93.30;;;;;;5027123;28;20026;-88
2021/03/01 10:11:04;;;;;;;22.80;13.48;;;6.10;93.40;;;;;;5014734;28;20043;-87
2021/03/01 10:13:33;;;;;;;25.38;14.63;;;6.10;93.70;;;;;;5030391;28;20461;-89
2021/03/01 10:16:01;;;;;;;25.13;13.75;;;6.10;93.50;;;;;;5014632;28;20029;-88
2021/03/01 10:18:29;;;;;;;27.50;14.77;;;6.10;93.50;;;;;;5044375;28;20021;-88
2021/03/01 10:21:06;;;;;;;24.20;12.40;;;6.20;93.40;;;;;;5041494;28;20112;-89
2021/03/01 10:23:33;;;;;;;21.58;13.25;;;6.20;93.40;;;;;;5013533;28;20036;-88
2021/03/01 10:26:15;;;;;;;21.55;12.27;;;6.20;93.40;;;;;;5032893;28;20440;-88
2021/03/01 10:29:02;;;;;;;20.92;11.80;;;6.20;93.40;;;;;;5031478;28;20017;-89
2021/03/01 10:31:38;;;;;;;25.02;13.25;;;6.30;93.40;;;;;;5029824;28;20037;-88
2021/03/01 10:34:12;;;;;;;24.67;13.57;;;6.30;93.30;;;;;;5009904;28;20201;-88
2021/03/01 10:36:40;;;;;;;21.20;12.82;;;6.30;93.30;;;;;;5013109;28;20037;-88
2021/03/01 10:39:29;;;;;;;23.13;12.98;;;6.30;93.40;;;;;;5036387;28;20057;-91
2021/03/01 10:42:15;;;;;;;21.10;12.10;;;6.30;93.30;;;;;;5019492;28;20112;-85
2021/03/01 10:44:46;;;;;;;25.00;12.90;;;6.40;93.30;;;;;;5017154;28;20021;-86
2021/03/01 10:47:33;;;;;;;28.05;14.57;;;6.40;93.30;;;;;;5041291;28;20033;-87
2021/03/01 10:50:01;;;;;;;25.75;13.77;;;6.50;93.30;;;;;;5016638;28;20029;-88
2021/03/01 10:52:28;;;;;;;25.58;13.95;;;6.50;93.20;;;;;;5019757;28;20017;-88
2021/03/01 10:54:55;;;;;;;24.38;14.10;;;6.50;93.20;;;;;;5032721;28;20108;-88
2021/03/01 10:57:22;;;;;;;24.40;13.70;;;6.50;93.20;;;;;;5016479;28;20060;-87
2021/03/01 10:59:51;;;;;;;24.02;14.02;;;6.60;93.10;;;;;;5032669;28;20057;-88
2021/03/01 11:02:17;;;;;;;28.17;14.40;;;6.60;93.20;;;;;;4999082;28;20474;-88
2021/03/01 11:04:42;;;;;;;28.00;15.57;;;6.60;93.10;;;;;;5014874;28;20067;-88
2021/03/01 11:07:08;;;;;;;23.95;13.63;;;6.60;93.00;;;;;;5004036;28;20411;-87
2021/03/01 11:09:34;;;;;;;22.33;12.75;;;6.60;93.00;;;;;;5041479;28;20028;-88
2021/03/01 11:12:00;;;;;;;20.92;12.30;;;6.70;93.10;;;;;;5022053;28;20092;-88
2021/03/01 11:14:25;;;;;;;22.45;12.40;;;6.70;93.20;;;;;;5031566;28;20036;-89
2021/03/01 11:16:53;;;;;;;21.73;13.02;;;6.70;93.20;;;;;;5027305;28;20450;-89
2021/03/01 11:19:19;;;;;;;25.10;13.50;;;6.70;93.20;;;;;;4999289;28;20076;-89
2021/03/01 11:21:44;;;;;;;22.67;13.13;;;6.80;93.20;;;;;;5008170;28;20030;-88
2021/03/01 11:24:12;;;;;;;24.67;12.85;;;6.80;93.20;;;;;;5005737;28;20113;-88
2021/03/01 11:26:37;;;;;;;22.77;12.38;;;6.90;93.10;;;;;;5011392;28;20025;-89
2021/03/01 11:29:04;;;;;;;23.52;12.60;;;6.90;93.00;;;;;;4999432;28;20032;-91
2021/03/01 11:31:32;;;;;;;27.70;14.02;;;6.90;93.00;;;;;;5015745;28;20029;-91
2021/03/01 11:34:01;;;;;;;23.45;13.10;;;7.00;92.80;;;;;;5025813;28;20045;-89
2021/03/01 11:36:28;;;;;;;22.58;13.13;;;7.00;92.90;;;;;;4996453;28;20096;-90
2021/03/01 11:38:53;;;;;;;21.13;11.48;;;7.00;92.80;;;;;;5037824;28;20071;-88
2021/03/01 11:41:19;;;;;;;20.13;12.27;;;7.10;92.90;;;;;;5023947;28;20462;-87
2021/03/01 11:43:45;;;;;;;21.73;12.85;;;7.10;92.90;;;;;;5042912;28;20025;-90
2021/03/01 11:46:11;;;;;;;20.55;12.15;;;7.10;92.80;;;;;;5023139;28;20047;-89
2021/03/01 11:48:38;;;;;;;20.05;11.30;;;7.10;92.80;;;;;;4999803;28;20025;-88
2021/03/01 11:51:04;;;;;;;21.73;12.13;;;7.10;92.80;;;;;;5034988;28;20525;-89
2021/03/01 11:53:30;;;;;;;21.27;11.25;;;7.20;92.80;;;;;;4999357;28;20113;-91
2021/03/01 11:55:56;;;;;;;19.55;11.20;;;7.20;92.90;;;;;;5015281;28;20061;-91
2021/03/01 11:58:21;;;;;;;22.67;11.88;;;7.30;92.90;;;;;;5003980;28;20022;-90
2021/03/01 12:00:47;;;;;;;20.73;11.05;;;7.40;92.90;;;;;;5014866;28;20136;-90
2021/03/01 12:03:13;;;;;;;19.67;10.73;;;7.40;92.90;;;;;;4996910;28;20077;-91
2021/03/01 12:05:40;;;;;;;19.13;11.15;;;7.50;92.80;;;;;;4997374;28;20130;-90
2021/03/01 12:08:07;;;;;;;21.67;11.07;;;7.50;92.80;;;;;;5016372;28;20022;-91
2021/03/01 12:10:34;;;;;;;20.40;11.82;;;7.60;92.80;;;;;;4992338;28;20489;-90
2021/03/01 12:13:00;;;;;;;21.60;12.55;;;7.60;92.60;;;;;;4982939;28;20026;-91
2021/03/01 12:15:26;;;;;;;17.60;11.05;;;7.60;92.40;;;;;;5021908;28;20108;-90
2021/03/01 12:17:52;;;;;;;20.85;12.30;;;7.60;92.20;;;;;;5014700;28;20022;-90
2021/03/01 12:20:24;;;;;;;19.30;12.27;;;7.70;92.30;;;;;;4999420;28;20076;-89
2021/03/01 12:22:49;;;;;;;19.85;12.23;;;7.70;92.30;;;;;;5017430;28;20029;-90
2021/03/01 12:25:16;;;;;;;19.70;10.32;;;7.80;92.10;;;;;;5031985;28;20022;-92
2021/03/01 12:27:41;;;;;;;18.60;10.90;;;7.80;92.10;;;;;;5026809;28;20101;-89
2021/03/01 12:30:08;;;;;;;21.42;11.40;;;7.80;92.10;;;;;;5030763;28;20041;-92
2021/03/01 12:32:34;;;;;;;23.38;12.02;;;7.90;92.00;;;;;;5008233;28;20081;-91
2021/03/01 12:34:59;;;;;;;18.27;10.93;;;7.90;92.00;;;;;;5040911;28;20038;-90
2021/03/01 12:37:26;;;;;;;18.60;11.63;;;8.00;92.00;;;;;;5010735;28;20028;-92
2021/03/01 12:39:51;;;;;;;18.15;10.43;;;8.00;91.90;;;;;;5030235;28;20469;-91
2021/03/01 12:42:17;;;;;;;19.63;11.32;;;8.10;92.00;;;;;;5031323;28;20037;-87
2021/03/01 12:44:43;;;;;;;17.42;10.55;;;8.10;92.00;;;;;;5014204;28;20092;-86
2021/03/01 12:47:08;;;;;;;19.27;11.25;;;8.30;92.00;;;;;;4996435;28;20490;-87